Time;durP1;ratioP1;P1;durP2;ratioP2;P2;SDS_P1;SDS_P2;PMS_P1;PMS_P2;Temp;Humidity;BMP_temperature;BMP_pressure;BME280_temperature;BME280_humidity;BME280_pressure;Samples;Min_cycle;Max_cycle;Signal;HPM_P1;HPM_P2
2022/12/18 00:02:06;;;;;;;64.60;24.65;;;-3.10;99.90;;;;;;5053259;28;20044;-61
2022/12/18 00:04:32;;;;;;;60.47;22.45;;;-3.00;99.90;;;;;;5053940;28;20052;-63
2022/12/18 00:06:57;;;;;;;62.90;23.70;;;-3.10;99.90;;;;;;5053172;28;20056;-63
2022/12/18 00:09:24;;;;;;;72.03;25.45;;;-3.10;99.90;;;;;;5053611;28;20104;-62
2022/12/18 00:11:49;;;;;;;68.13;23.83;;;-3.00;99.90;;;;;;5052489;28;20049;-62
2022/12/18 00:14:15;;;;;;;64.20;23.95;;;-3.00;99.90;;;;;;5053429;28;20099;-60
2022/12/18 00:16:44;;;;;;;69.25;24.88;;;-3.10;99.90;;;;;;5051589;28;20040;-60
2022/12/18 00:19:10;;;;;;;71.45;26.15;;;-3.10;99.90;;;;;;5054944;28;20044;-62
2022/12/18 00:21:36;;;;;;;61.92;24.83;;;-3.10;99.90;;;;;;5071920;28;20036;-61
2022/12/18 00:24:01;;;;;;;62.38;24.83;;;-3.10;99.90;;;;;;5071708;28;20119;-60
2022/12/18 00:26:29;;;;;;;57.80;22.23;;;-3.20;99.90;;;;;;5063996;28;20080;-64
2022/12/18 00:29:02;;;;;;;58.33;22.48;;;-3.10;99.90;;;;;;5065676;28;20037;-61
2022/12/18 00:31:27;;;;;;;63.75;24.98;;;-3.10;99.90;;;;;;5061930;28;20098;-62
2022/12/18 00:33:55;;;;;;;65.38;25.17;;;-3.10;99.90;;;;;;5068109;28;20365;-60
2022/12/18 00:36:23;;;;;;;61.85;25.27;;;-3.20;99.90;;;;;;5052489;28;20037;-62
2022/12/18 00:38:49;;;;;;;63.25;24.75;;;-3.20;99.90;;;;;;5052505;28;20330;-60
2022/12/18 00:42:55;;;;;;;58.20;24.60;;;-3.20;99.90;;;;;;5062430;28;20052;-65
2022/12/18 00:44:02;;;;;;;65.18;25.50;;;-3.20;99.90;;;;;;5064830;28;20106;-61
2022/12/18 00:46:27;;;;;;;62.13;24.88;;;-3.20;99.90;;;;;;5052135;28;20036;-65
2022/12/18 00:48:53;;;;;;;68.00;27.33;;;-3.30;99.90;;;;;;5052566;28;20106;-60
2022/12/18 00:51:19;;;;;;;58.28;25.23;;;-3.40;99.90;;;;;;5052281;28;20461;-63
2022/12/18 00:53:44;;;;;;;66.35;25.88;;;-3.30;99.90;;;;;;5072184;28;20044;-60
2022/12/18 00:56:10;;;;;;;62.15;24.17;;;-3.30;99.90;;;;;;5065313;28;20151;-64
2022/12/18 00:58:35;;;;;;;56.70;24.13;;;-3.30;99.90;;;;;;5039377;28;20041;-60
2022/12/18 01:01:01;;;;;;;64.45;24.73;;;-3.40;99.90;;;;;;5047567;28;20063;-61
2022/12/18 01:03:26;;;;;;;69.05;25.80;;;-3.30;99.90;;;;;;5034274;28;20052;-63
2022/12/18 01:05:52;;;;;;;66.88;24.60;;;-3.40;99.90;;;;;;5052448;28;20033;-62
2022/12/18 01:08:17;;;;;;;74.10;27.35;;;-3.40;99.90;;;;;;5071967;28;20119;-61
2022/12/18 01:10:43;;;;;;;71.05;27.20;;;-3.40;99.90;;;;;;5058381;28;20083;-61
2022/12/18 01:13:08;;;;;;;64.00;26.02;;;-3.40;99.90;;;;;;5071509;28;20040;-59
2022/12/18 01:15:34;;;;;;;71.90;26.38;;;-3.40;99.90;;;;;;5070302;28;20368;-65
2022/12/18 01:17:59;;;;;;;63.40;25.98;;;-3.30;99.90;;;;;;5063778;28;20140;-60
2022/12/18 01:20:25;;;;;;;75.63;27.17;;;-3.40;99.90;;;;;;5052520;28;20037;-64
2022/12/18 01:22:50;;;;;;;66.28;25.15;;;-3.60;99.90;;;;;;5034510;28;20033;-63
2022/12/18 01:25:16;;;;;;;64.88;24.85;;;-3.50;99.90;;;;;;5052864;28;20037;-60
2022/12/18 01:27:42;;;;;;;64.00;25.92;;;-3.50;99.90;;;;;;5066702;28;20048;-61
2022/12/18 01:30:07;;;;;;;68.30;23.83;;;-3.50;99.90;;;;;;5076454;28;20044;-62
2022/12/18 01:32:33;;;;;;;73.32;26.30;;;-3.50;99.90;;;;;;5075338;28;20102;-62
2022/12/18 01:34:59;;;;;;;75.78;27.08;;;-3.50;99.90;;;;;;5076002;28;20468;-61
2022/12/18 01:37:24;;;;;;;75.70;25.98;;;-3.60;99.90;;;;;;5059337;28;20041;-64
2022/12/18 01:39:52;;;;;;;74.10;26.63;;;-3.70;99.90;;;;;;5074784;28;20121;-61
2022/12/18 01:42:17;;;;;;;65.53;24.92;;;-3.70;99.90;;;;;;5076155;28;20437;-61
2022/12/18 01:45:06;;;;;;;64.45;26.35;;;-3.70;99.90;;;;;;5074792;28;20449;-62
2022/12/18 01:47:44;;;;;;;73.35;28.38;;;-3.80;99.90;;;;;;5058535;28;20044;-63
2022/12/18 01:50:15;;;;;;;61.72;25.65;;;-3.80;99.90;;;;;;5058152;28;20575;-60
2022/12/18 01:52:44;;;;;;;62.97;24.70;;;-3.80;99.90;;;;;;5075307;28;20049;-60
2022/12/18 01:55:12;;;;;;;58.72;23.45;;;-3.90;99.90;;;;;;5076525;28;20047;-61
2022/12/18 01:57:38;;;;;;;68.78;24.02;;;-3.90;99.90;;;;;;5075897;28;20051;-59
2022/12/18 02:00:17;;;;;;;67.43;25.40;;;-4.00;99.90;;;;;;5058962;28;20036;-61
2022/12/18 02:02:44;;;;;;;61.00;26.08;;;-3.90;99.90;;;;;;5075001;28;20059;-60
2022/12/18 02:05:12;;;;;;;70.38;25.40;;;-4.00;99.90;;;;;;5075389;28;20407;-60
2022/12/18 02:07:56;;;;;;;62.05;22.13;;;-4.10;99.90;;;;;;5076212;28;20074;-60
2022/12/18 02:10:28;;;;;;;58.17;24.20;;;-4.20;99.90;;;;;;5074080;28;20053;-61
2022/12/18 02:13:10;;;;;;;53.35;22.05;;;-4.20;99.90;;;;;;5058065;28;20388;-63
2022/12/18 02:16:08;;;;;;;56.25;22.45;;;-4.20;99.90;;;;;;5074937;28;20116;-61
2022/12/18 02:18:39;;;;;;;62.70;22.17;;;-4.30;99.90;;;;;;5066735;28;20055;-61
2022/12/18 02:21:39;;;;;;;61.60;24.42;;;-4.40;99.90;;;;;;5056561;28;20083;-64
2022/12/18 02:24:27;;;;;;;58.45;23.70;;;-4.40;99.90;;;;;;5069885;28;20064;-62
2022/12/18 02:27:06;;;;;;;56.35;21.35;;;-4.50;99.90;;;;;;5075248;28;20052;-60
2022/12/18 02:29:47;;;;;;;67.43;25.38;;;-4.40;99.90;;;;;;5049962;28;20449;-61
2022/12/18 02:32:21;;;;;;;64.57;24.70;;;-4.50;99.90;;;;;;5054901;28;20429;-61
2022/12/18 02:34:50;;;;;;;58.72;22.88;;;-4.60;99.90;;;;;;5073788;28;20079;-60
2022/12/18 02:37:19;;;;;;;59.45;24.58;;;-4.60;99.90;;;;;;5062440;28;20371;-60
2022/12/18 02:39:48;;;;;;;59.13;21.90;;;-4.60;99.90;;;;;;5055855;28;20522;-60
2022/12/18 02:42:13;;;;;;;60.33;20.85;;;-4.70;99.90;;;;;;5073171;28;20123;-58
2022/12/18 02:44:47;;;;;;;60.53;22.52;;;-4.70;99.90;;;;;;5056324;28;20043;-60
2022/12/18 02:47:16;;;;;;;61.10;23.07;;;-4.60;99.90;;;;;;5064533;28;20040;-58
2022/12/18 02:49:57;;;;;;;56.88;21.83;;;-4.70;99.90;;;;;;5056521;28;20750;-61
2022/12/18 02:52:37;;;;;;;58.00;23.27;;;-4.70;99.90;;;;;;5050809;28;20357;-60
2022/12/18 02:55:05;;;;;;;56.45;21.48;;;-4.70;99.90;;;;;;5055793;28;20040;-59
2022/12/18 02:57:42;;;;;;;51.65;20.88;;;-4.70;99.90;;;;;;5067993;28;20063;-62
2022/12/18 03:00:11;;;;;;;54.80;20.52;;;-4.80;99.90;;;;;;5072375;28;20451;-61
2022/12/18 03:02:48;;;;;;;46.95;19.92;;;-4.80;99.90;;;;;;5055353;28;20068;-60
2022/12/18 03:05:20;;;;;;;47.13;20.20;;;-4.80;99.90;;;;;;5049370;28;20039;-60
2022/12/18 03:07:57;;;;;;;50.35;19.23;;;-4.80;99.90;;;;;;5069742;28;20123;-62
2022/12/18 03:10:30;;;;;;;49.80;20.73;;;-4.80;99.90;;;;;;5073743;28;20049;-61
2022/12/18 03:13:10;;;;;;;55.00;20.90;;;-4.90;99.90;;;;;;5072745;28;20111;-63
2022/12/18 03:15:42;;;;;;;48.40;20.38;;;-4.90;99.90;;;;;;5072684;28;20050;-61
2022/12/18 03:18:22;;;;;;;55.75;20.33;;;-5.00;99.90;;;;;;5048636;28;20056;-62
2022/12/18 03:20:51;;;;;;;45.75;19.13;;;-5.00;99.90;;;;;;5054069;28;20387;-62
2022/12/18 03:23:22;;;;;;;54.75;20.75;;;-5.00;99.90;;;;;;5053211;28;20499;-63
2022/12/18 03:25:52;;;;;;;50.60;21.38;;;-5.10;99.90;;;;;;5053646;28;20041;-62
2022/12/18 03:28:21;;;;;;;52.85;21.40;;;-5.10;99.90;;;;;;5053417;28;20057;-62
2022/12/18 03:30:52;;;;;;;52.47;20.63;;;-5.10;99.90;;;;;;5053711;28;20065;-62
2022/12/18 03:33:21;;;;;;;51.45;19.88;;;-5.10;99.90;;;;;;5053174;28;20055;-62
2022/12/18 03:35:47;;;;;;;50.75;20.02;;;-5.10;99.90;;;;;;5070314;28;20045;-60
2022/12/18 03:38:13;;;;;;;50.40;19.67;;;-5.20;99.90;;;;;;5065568;28;20045;-62
2022/12/18 03:40:57;;;;;;;48.53;19.45;;;-5.20;99.90;;;;;;5072646;28;20039;-61
2022/12/18 03:43:25;;;;;;;56.00;19.25;;;-5.20;99.90;;;;;;5038468;28;20141;-62
2022/12/18 03:45:58;;;;;;;51.75;19.58;;;-5.20;99.90;;;;;;5070868;28;20040;-61
2022/12/18 03:48:32;;;;;;;45.05;18.73;;;-5.20;99.90;;;;;;5053632;28;20060;-64
2022/12/18 03:51:05;;;;;;;44.78;18.30;;;-5.30;99.90;;;;;;5052376;28;20108;-63
2022/12/18 03:53:51;;;;;;;47.90;20.00;;;-5.30;99.90;;;;;;5054024;28;20048;-65
2022/12/18 03:56:17;;;;;;;44.60;18.80;;;-5.30;99.90;;;;;;5054045;28;20045;-61
2022/12/18 03:58:45;;;;;;;50.63;18.10;;;-5.20;99.90;;;;;;5073326;28;20342;-60
2022/12/18 04:01:14;;;;;;;43.95;18.13;;;-5.20;99.90;;;;;;5071869;28;20112;-61
2022/12/18 04:03:42;;;;;;;47.50;18.77;;;-5.20;99.90;;;;;;5072374;28;20032;-60
2022/12/18 04:06:08;;;;;;;46.28;19.00;;;-5.20;99.90;;;;;;5069500;28;20060;-59
2022/12/18 04:08:34;;;;;;;44.28;18.40;;;-5.20;99.90;;;;;;5072564;28;20380;-61
2022/12/18 04:11:01;;;;;;;45.92;18.77;;;-5.20;99.90;;;;;;5070857;28;20045;-61
2022/12/18 04:13:34;;;;;;;46.35;18.48;;;-5.20;99.90;;;;;;5071343;28;20036;-65
2022/12/18 04:16:01;;;;;;;48.65;18.42;;;-5.20;99.90;;;;;;5064758;28;20041;-61
2022/12/18 04:18:26;;;;;;;43.45;18.58;;;-5.30;99.90;;;;;;5068909;28;20036;-65
2022/12/18 04:20:52;;;;;;;50.88;19.08;;;-5.30;99.90;;;;;;5069055;28;20049;-64
2022/12/18 04:23:18;;;;;;;41.97;17.52;;;-5.40;99.90;;;;;;5070800;28;20044;-61
2022/12/18 04:25:43;;;;;;;44.50;17.35;;;-5.40;99.90;;;;;;5064237;28;20040;-60
2022/12/18 04:28:09;;;;;;;46.40;16.95;;;-5.40;99.90;;;;;;5046307;28;20436;-62
2022/12/18 04:30:34;;;;;;;42.83;17.00;;;-5.40;99.90;;;;;;5067777;28;20400;-62
2022/12/18 04:33:00;;;;;;;43.83;17.40;;;-5.50;99.90;;;;;;5071310;28;20393;-62
2022/12/18 04:35:26;;;;;;;41.15;17.58;;;-5.50;99.90;;;;;;5071285;28;20036;-62
2022/12/18 04:37:51;;;;;;;43.38;17.33;;;-5.50;99.90;;;;;;5065354;28;20036;-63
2022/12/18 04:40:17;;;;;;;41.75;17.83;;;-5.40;99.90;;;;;;5045548;28;20539;-61
2022/12/18 04:42:42;;;;;;;45.60;17.42;;;-5.40;99.90;;;;;;5069546;28;20032;-58
2022/12/18 04:45:08;;;;;;;44.72;17.63;;;-5.40;99.90;;;;;;5071430;28;20033;-59
2022/12/18 04:47:34;;;;;;;42.88;16.92;;;-5.50;99.90;;;;;;5068224;28;20321;-60
2022/12/18 04:49:59;;;;;;;40.75;15.60;;;-5.50;99.90;;;;;;5068931;28;20304;-61
2022/12/18 04:52:25;;;;;;;41.05;17.90;;;-5.50;99.90;;;;;;5070076;28;20342;-62
2022/12/18 04:54:51;;;;;;;41.15;16.77;;;-5.50;99.90;;;;;;5068214;28;20037;-63
2022/12/18 04:57:17;;;;;;;48.00;17.08;;;-5.50;99.90;;;;;;5047637;28;20388;-62
2022/12/18 04:59:44;;;;;;;43.88;17.02;;;-5.40;99.90;;;;;;5068916;28;20044;-61
2022/12/18 05:02:09;;;;;;;47.67;17.92;;;-5.50;99.90;;;;;;5071523;28;20101;-61
2022/12/18 05:04:35;;;;;;;43.58;17.38;;;-5.40;99.90;;;;;;5073466;28;20604;-59
2022/12/18 05:07:00;;;;;;;40.20;16.98;;;-5.40;99.90;;;;;;5072288;28;20100;-62
2022/12/18 05:09:26;;;;;;;32.35;14.70;;;-5.50;99.90;;;;;;5073353;28;20049;-62
2022/12/18 05:11:52;;;;;;;39.67;16.90;;;-5.40;99.90;;;;;;5074348;28;20048;-62
2022/12/18 05:14:17;;;;;;;40.25;17.30;;;-5.40;99.90;;;;;;5072539;28;20104;-62
2022/12/18 05:16:43;;;;;;;43.33;16.45;;;-5.30;99.90;;;;;;5074137;28;20329;-61
2022/12/18 05:19:08;;;;;;;43.88;17.10;;;-5.50;99.90;;;;;;5063219;28;20463;-60
2022/12/18 05:21:34;;;;;;;37.38;16.25;;;-5.50;99.90;;;;;;5075736;28;20033;-61
2022/12/18 05:23:59;;;;;;;36.97;15.65;;;-5.50;99.90;;;;;;5075943;28;20036;-62
2022/12/18 05:26:25;;;;;;;46.10;17.08;;;-5.50;99.90;;;;;;5067579;28;20124;-61
2022/12/18 05:28:51;;;;;;;37.58;15.57;;;-5.50;99.90;;;;;;5056222;28;20048;-63
2022/12/18 05:31:16;;;;;;;40.63;15.85;;;-5.40;99.90;;;;;;5055891;28;20044;-59
2022/12/18 05:33:42;;;;;;;40.63;15.70;;;-5.50;99.90;;;;;;5057215;28;20458;-62
2022/12/18 05:36:08;;;;;;;35.97;14.30;;;-5.40;99.90;;;;;;5071549;28;20077;-62
2022/12/18 05:38:36;;;;;;;41.92;17.17;;;-5.40;99.90;;;;;;5069945;28;20041;-62
2022/12/18 05:41:02;;;;;;;36.95;15.20;;;-5.50;99.90;;;;;;5074766;28;20036;-61
2022/12/18 05:43:28;;;;;;;43.63;15.50;;;-5.50;99.90;;;;;;5064065;28;20037;-63
2022/12/18 05:45:54;;;;;;;35.63;15.32;;;-5.50;99.90;;;;;;5073606;28;20041;-62
2022/12/18 05:48:20;;;;;;;40.75;14.82;;;-5.50;99.90;;;;;;5069841;28;20051;-61
2022/12/18 05:50:48;;;;;;;35.90;14.18;;;-5.50;99.90;;;;;;5074708;28;20051;-59
2022/12/18 05:53:16;;;;;;;37.05;15.18;;;-5.50;99.90;;;;;;5074188;28;20044;-58
2022/12/18 05:55:43;;;;;;;40.67;15.70;;;-5.50;99.90;;;;;;5074568;28;20123;-61
2022/12/18 05:58:10;;;;;;;38.20;15.30;;;-5.50;99.90;;;;;;5069318;28;20037;-62
2022/12/18 06:00:41;;;;;;;35.97;15.60;;;-5.50;99.90;;;;;;5074974;28;20036;-60
2022/12/18 06:03:09;;;;;;;34.75;15.07;;;-5.60;99.90;;;;;;5055348;28;20051;-61
2022/12/18 06:05:43;;;;;;;33.63;15.10;;;-5.60;99.90;;;;;;5074008;28;20342;-61
2022/12/18 06:08:09;;;;;;;34.60;15.10;;;-5.60;99.90;;;;;;5071527;28;20191;-61
2022/12/18 06:10:35;;;;;;;36.13;14.15;;;-5.70;99.90;;;;;;5073987;28;20456;-62
2022/12/18 06:13:01;;;;;;;41.00;15.98;;;-5.60;99.90;;;;;;5072670;28;20039;-61
2022/12/18 06:15:26;;;;;;;39.38;15.75;;;-5.60;99.90;;;;;;5074545;28;20437;-63
2022/12/18 06:17:52;;;;;;;34.60;15.57;;;-5.70;99.90;;;;;;5055951;28;20174;-62
2022/12/18 06:20:18;;;;;;;38.05;15.50;;;-5.70;99.90;;;;;;5055182;28;20098;-60
2022/12/18 06:22:44;;;;;;;39.25;15.65;;;-5.70;99.90;;;;;;5054394;28;20373;-61
2022/12/18 06:25:09;;;;;;;45.88;16.13;;;-5.70;99.90;;;;;;5055478;28;20029;-61
2022/12/18 06:27:35;;;;;;;41.30;14.70;;;-5.70;99.90;;;;;;5055008;28;20060;-59
2022/12/18 06:30:01;;;;;;;41.63;15.35;;;-5.70;99.90;;;;;;5038246;28;20052;-60
2022/12/18 06:32:27;;;;;;;35.33;14.05;;;-5.70;99.90;;;;;;5055156;28;20365;-63
2022/12/18 06:34:53;;;;;;;40.28;14.75;;;-5.70;99.90;;;;;;5055689;28;20044;-61
2022/12/18 06:37:19;;;;;;;36.90;14.80;;;-5.70;99.90;;;;;;5045469;28;20333;-60
2022/12/18 06:39:45;;;;;;;41.80;17.05;;;-5.80;99.90;;;;;;5065813;28;20081;-61
2022/12/18 06:42:10;;;;;;;42.90;16.23;;;-5.80;99.90;;;;;;5056556;28;20448;-63
2022/12/18 06:44:36;;;;;;;35.53;14.55;;;-5.80;99.90;;;;;;5054951;28;20051;-61
2022/12/18 06:47:02;;;;;;;37.72;15.35;;;-5.80;99.90;;;;;;5055047;28;20033;-60
2022/12/18 06:49:27;;;;;;;39.75;15.18;;;-5.80;99.90;;;;;;5054747;28;20098;-62
2022/12/18 06:51:53;;;;;;;34.35;14.48;;;-5.80;99.90;;;;;;5054546;28;20051;-60
2022/12/18 06:54:18;;;;;;;45.22;16.83;;;-5.60;99.90;;;;;;5054820;28;20368;-60
2022/12/18 06:56:45;;;;;;;37.60;15.50;;;-5.80;99.90;;;;;;5068205;28;20444;-60
2022/12/18 06:59:12;;;;;;;34.58;14.88;;;-5.70;99.90;;;;;;5056692;28;20526;-61
2022/12/18 07:01:38;;;;;;;32.47;15.23;;;-5.70;99.90;;;;;;5054938;28;20039;-61
2022/12/18 07:04:03;;;;;;;36.85;15.15;;;-5.80;99.90;;;;;;5056405;28;20048;-60
2022/12/18 07:06:29;;;;;;;36.67;13.38;;;-5.70;99.90;;;;;;5072076;28;20083;-61
2022/12/18 07:08:55;;;;;;;33.42;14.38;;;-5.80;99.90;;;;;;5056231;28;20444;-60
2022/12/18 07:11:20;;;;;;;37.45;15.07;;;-5.70;99.90;;;;;;5072719;28;20438;-62
2022/12/18 07:13:46;;;;;;;31.42;14.05;;;-5.80;99.90;;;;;;5045647;28;20059;-60
2022/12/18 07:16:17;;;;;;;39.42;14.60;;;-5.80;99.90;;;;;;5036346;28;20091;-60
2022/12/18 07:18:44;;;;;;;32.10;13.95;;;-5.80;99.90;;;;;;5053915;28;20060;-60
2022/12/18 07:21:17;;;;;;;34.28;14.57;;;-5.80;99.90;;;;;;5035508;28;20516;-60
2022/12/18 07:23:44;;;;;;;35.65;14.40;;;-5.70;99.90;;;;;;5055032;28;20037;-59
2022/12/18 07:26:13;;;;;;;37.63;13.73;;;-5.80;99.90;;;;;;5053181;28;20449;-60
2022/12/18 07:28:41;;;;;;;35.83;13.90;;;-5.80;99.90;;;;;;5054013;28;20142;-62
2022/12/18 07:31:11;;;;;;;26.65;12.88;;;-5.70;99.90;;;;;;5053375;28;20041;-62
2022/12/18 07:33:37;;;;;;;30.83;13.38;;;-5.70;99.90;;;;;;5054120;28;20052;-59
2022/12/18 07:36:05;;;;;;;30.42;12.73;;;-5.80;99.90;;;;;;5053755;28;20124;-59
2022/12/18 07:38:32;;;;;;;26.98;12.05;;;-5.80;99.90;;;;;;5054561;28;20049;-60
2022/12/18 07:41:18;;;;;;;33.20;13.73;;;-5.80;99.90;;;;;;5053731;28;20036;-62
2022/12/18 07:43:44;;;;;;;31.73;13.45;;;-5.80;99.90;;;;;;5055257;28;20174;-60
2022/12/18 07:46:13;;;;;;;29.90;13.60;;;-5.80;99.90;;;;;;5054504;28;20119;-60
2022/12/18 07:48:39;;;;;;;30.80;13.88;;;-5.80;99.90;;;;;;5054647;28;20041;-58
2022/12/18 07:51:07;;;;;;;35.25;13.93;;;-5.80;99.90;;;;;;5053866;28;20052;-62
2022/12/18 07:53:34;;;;;;;32.60;14.52;;;-5.80;99.90;;;;;;5055355;28;20045;-62
2022/12/18 07:56:02;;;;;;;30.38;14.48;;;-5.80;99.90;;;;;;5054128;28;20048;-60
2022/12/18 07:58:29;;;;;;;32.83;15.73;;;-5.70;99.90;;;;;;5055012;28;20043;-60
2022/12/18 08:01:01;;;;;;;32.40;14.07;;;-5.70;99.90;;;;;;5065732;28;20085;-62
2022/12/18 08:03:27;;;;;;;31.40;12.40;;;-5.70;99.90;;;;;;5070580;28;20035;-63
2022/12/18 08:05:52;;;;;;;27.83;13.57;;;-5.70;99.90;;;;;;5070680;28;20048;-62
2022/12/18 08:08:18;;;;;;;28.20;12.57;;;-5.60;99.90;;;;;;5067225;28;20040;-61
2022/12/18 08:10:43;;;;;;;32.63;13.68;;;-5.60;99.90;;;;;;5069185;28;20123;-60
2022/12/18 08:13:09;;;;;;;24.15;11.57;;;-5.60;99.90;;;;;;5068674;28;20072;-60
2022/12/18 08:15:34;;;;;;;30.27;13.10;;;-5.50;99.90;;;;;;5069233;28;20039;-61
2022/12/18 08:18:00;;;;;;;32.65;14.60;;;-5.50;99.90;;;;;;5065299;28;20063;-61
2022/12/18 08:20:25;;;;;;;29.85;11.80;;;-5.60;99.90;;;;;;5071446;28;20502;-64
2022/12/18 08:22:51;;;;;;;29.08;13.77;;;-5.50;99.90;;;;;;5068723;28;20039;-62
2022/12/18 08:25:16;;;;;;;27.88;13.13;;;-5.50;99.90;;;;;;5070658;28;20489;-59
2022/12/18 08:27:42;;;;;;;31.92;13.40;;;-5.50;99.90;;;;;;5062508;28;20057;-61
2022/12/18 08:30:08;;;;;;;23.85;12.02;;;-5.40;99.90;;;;;;5062403;28;20068;-61
2022/12/18 08:32:34;;;;;;;31.83;11.65;;;-5.40;99.90;;;;;;5067843;28;20036;-62
2022/12/18 08:35:00;;;;;;;30.95;11.63;;;-5.40;99.90;;;;;;5070094;28;20036;-62
2022/12/18 08:37:26;;;;;;;29.88;12.85;;;-5.40;99.90;;;;;;5067514;28;20048;-62
2022/12/18 08:39:51;;;;;;;28.15;13.02;;;-5.30;99.90;;;;;;5068873;28;20037;-62
2022/12/18 08:45:02;;;;;;;32.60;14.35;;;-5.30;99.90;;;;;;5070220;28;20105;-62
2022/12/18 08:47:27;;;;;;;27.58;13.18;;;-5.30;99.90;;;;;;5041847;28;20114;-62
2022/12/18 08:49:53;;;;;;;25.58;12.55;;;-5.20;99.90;;;;;;5070643;28;20174;-61
2022/12/18 08:52:18;;;;;;;27.60;12.38;;;-5.10;99.90;;;;;;5063261;28;20365;-60
2022/12/18 08:54:44;;;;;;;28.23;13.07;;;-5.10;99.90;;;;;;5053307;28;20041;-65
2022/12/18 08:57:09;;;;;;;26.77;13.02;;;-5.00;99.90;;;;;;5051355;28;20052;-61
2022/12/18 08:59:35;;;;;;;22.05;10.18;;;-4.90;99.90;;;;;;5052814;28;20044;-62
2022/12/18 09:02:00;;;;;;;24.45;11.15;;;-4.90;99.90;;;;;;5051584;28;20493;-63
2022/12/18 09:04:26;;;;;;;23.40;12.07;;;-4.80;99.90;;;;;;5052115;28;20033;-64
2022/12/18 09:06:54;;;;;;;23.27;11.02;;;-4.70;99.90;;;;;;5052160;28;20049;-62
2022/12/18 09:09:20;;;;;;;21.60;11.05;;;-4.70;99.90;;;;;;5035748;28;20170;-62
2022/12/18 09:11:46;;;;;;;22.60;11.60;;;-4.60;99.90;;;;;;5071800;28;20040;-61
2022/12/18 09:14:12;;;;;;;23.42;11.07;;;-4.60;99.90;;;;;;5051707;28;20040;-61
2022/12/18 09:16:37;;;;;;;24.02;10.57;;;-4.50;99.90;;;;;;5049185;28;20076;-62
2022/12/18 09:19:04;;;;;;;25.70;12.88;;;-4.40;99.90;;;;;;5068435;28;20068;-59
2022/12/18 09:21:32;;;;;;;21.65;10.80;;;-4.30;99.90;;;;;;5070994;28;20029;-60
2022/12/18 09:23:58;;;;;;;21.33;10.68;;;-4.20;99.90;;;;;;5069494;28;20025;-60
2022/12/18 09:26:25;;;;;;;20.15;10.07;;;-4.00;99.90;;;;;;5065566;28;20132;-62
2022/12/18 09:28:51;;;;;;;20.30;10.82;;;-3.90;99.90;;;;;;5051023;28;20084;-61
2022/12/18 09:31:20;;;;;;;19.67;10.25;;;-3.80;99.90;;;;;;5066563;28;20467;-59
2022/12/18 09:33:45;;;;;;;20.02;9.80;;;-3.80;99.90;;;;;;5049900;28;20051;-63
2022/12/18 09:36:15;;;;;;;18.40;9.35;;;-3.70;99.90;;;;;;5065269;28;20384;-63
2022/12/18 09:38:41;;;;;;;18.48;10.07;;;-3.70;99.90;;;;;;5052431;28;20053;-62
2022/12/18 09:41:27;;;;;;;17.05;8.93;;;-3.60;99.90;;;;;;5069373;28;20150;-64
2022/12/18 09:44:20;;;;;;;18.02;9.77;;;-3.50;99.90;;;;;;5027563;28;20042;-64
2022/12/18 09:47:02;;;;;;;17.08;8.57;;;-3.40;99.90;;;;;;5043030;28;20048;-64
2022/12/18 09:49:32;;;;;;;18.17;9.73;;;-3.40;99.90;;;;;;5069302;28;20040;-62
2022/12/18 09:52:19;;;;;;;17.13;8.93;;;-3.30;99.90;;;;;;5053482;28;20083;-63
2022/12/18 09:54:51;;;;;;;19.35;9.45;;;-3.30;99.90;;;;;;5074101;28;20032;-64
2022/12/18 09:57:21;;;;;;;24.40;10.32;;;-3.30;99.90;;;;;;5071112;28;20059;-63
2022/12/18 09:59:54;;;;;;;19.55;9.43;;;-3.20;99.90;;;;;;5072196;28;20417;-66
2022/12/18 10:02:23;;;;;;;19.42;9.07;;;-3.20;99.90;;;;;;5006022;28;20365;-63
2022/12/18 10:05:10;;;;;;;19.63;9.80;;;-3.10;99.90;;;;;;5069953;28;20037;-64
2022/12/18 10:07:57;;;;;;;19.05;9.02;;;-3.10;99.90;;;;;;5043351;28;20048;-62
2022/12/18 10:10:44;;;;;;;16.42;8.68;;;-3.10;99.90;;;;;;5061600;28;20123;-67
2022/12/18 10:13:16;;;;;;;14.20;8.27;;;-3.00;99.90;;;;;;5036804;28;20609;-66
2022/12/18 10:16:09;;;;;;;14.75;7.28;;;-3.00;99.90;;;;;;5072546;28;20083;-63
2022/12/18 10:18:50;;;;;;;17.92;8.75;;;-2.90;99.90;;;;;;5052492;28;20052;-63
2022/12/18 10:21:29;;;;;;;14.15;7.88;;;-2.90;99.90;;;;;;5037124;28;20032;-64
2022/12/18 10:24:14;;;;;;;15.55;8.35;;;-2.80;99.90;;;;;;5072114;28;20041;-62
2022/12/18 10:26:41;;;;;;;13.38;6.75;;;-2.80;99.90;;;;;;5043345;28;20437;-61
2022/12/18 10:29:12;;;;;;;14.32;7.32;;;-2.80;99.90;;;;;;5071206;28;20419;-60
2022/12/18 10:31:38;;;;;;;16.65;7.65;;;-2.80;99.90;;;;;;5093742;28;20040;-63
2022/12/18 10:34:04;;;;;;;15.77;8.02;;;-2.70;99.90;;;;;;5091920;28;20032;-65
2022/12/18 10:36:39;;;;;;;13.70;7.10;;;-2.60;99.90;;;;;;5087212;28;20036;-64
2022/12/18 10:39:16;;;;;;;17.77;8.65;;;-2.60;99.90;;;;;;5051771;28;20036;-62
2022/12/18 10:41:42;;;;;;;15.48;7.15;;;-2.50;99.90;;;;;;5084826;28;20036;-61
2022/12/18 10:44:24;;;;;;;16.83;8.70;;;-2.50;99.90;;;;;;5075668;28;20345;-63
2022/12/18 10:47:02;;;;;;;13.50;7.13;;;-2.40;99.90;;;;;;5052063;28;20051;-63
2022/12/18 10:49:32;;;;;;;13.55;7.25;;;-2.30;99.90;;;;;;5082604;28;20120;-62
2022/12/18 10:52:24;;;;;;;13.80;7.38;;;-2.30;99.90;;;;;;5076521;28;20064;-67
2022/12/18 10:54:54;;;;;;;14.32;7.38;;;-2.20;99.90;;;;;;5073534;28;20109;-63
2022/12/18 10:57:26;;;;;;;16.75;7.55;;;-2.20;99.90;;;;;;5057342;28;20387;-63
2022/12/18 10:59:56;;;;;;;14.13;8.02;;;-2.10;99.90;;;;;;5079123;28;20045;-63
2022/12/18 11:02:36;;;;;;;15.57;7.53;;;-2.00;99.90;;;;;;5075721;28;20424;-62
2022/12/18 11:05:30;;;;;;;14.77;7.63;;;-2.00;99.90;;;;;;5076342;28;20048;-62
2022/12/18 11:07:56;;;;;;;14.18;7.35;;;-2.00;99.90;;;;;;5057405;28;20048;-63
2022/12/18 11:10:31;;;;;;;17.00;8.15;;;-1.90;99.90;;;;;;5057184;28;20078;-63
2022/12/18 11:13:29;;;;;;;13.02;7.03;;;-1.90;99.90;;;;;;5077003;28;20431;-65
2022/12/18 11:15:55;;;;;;;12.40;6.78;;;-1.80;99.90;;;;;;5056586;28;20083;-63
2022/12/18 11:18:33;;;;;;;11.68;6.50;;;-1.70;99.90;;;;;;5088838;28;20044;-62
2022/12/18 11:21:07;;;;;;;12.52;7.20;;;-1.70;99.90;;;;;;5079459;28;20120;-61
2022/12/18 11:23:34;;;;;;;13.40;6.78;;;-1.70;99.90;;;;;;5093390;28;20031;-62
2022/12/18 11:26:02;;;;;;;14.40;6.88;;;-1.60;99.90;;;;;;5084283;28;20086;-66
2022/12/18 11:29:07;;;;;;;11.85;7.30;;;-1.60;99.90;;;;;;5072468;28;20070;-61
2022/12/18 11:31:33;;;;;;;12.05;6.68;;;-1.50;99.90;;;;;;5088039;28;20467;-60
2022/12/18 11:34:14;;;;;;;13.27;7.22;;;-1.40;99.90;;;;;;5088206;28;20037;-60
2022/12/18 11:36:46;;;;;;;13.98;7.05;;;-1.50;99.90;;;;;;5087991;28;20083;-60
2022/12/18 11:39:14;;;;;;;13.85;7.65;;;-1.40;99.90;;;;;;5084626;28;20080;-62
2022/12/18 11:45:07;;;;;;;14.90;8.05;;;-1.40;99.90;;;;;;5071073;28;20114;-60
2022/12/18 11:47:52;;;;;;;17.15;8.68;;;-1.40;99.90;;;;;;5088485;28;20032;-59
2022/12/18 11:50:21;;;;;;;17.55;8.00;;;-1.40;99.90;;;;;;5080364;28;20051;-61
2022/12/18 11:52:47;;;;;;;15.85;8.27;;;-1.30;99.90;;;;;;5078291;28;20469;-60
2022/12/18 11:55:39;;;;;;;16.13;8.02;;;-1.30;99.90;;;;;;5078448;28;20043;-61
2022/12/18 11:58:46;;;;;;;13.70;7.40;;;-1.30;99.90;;;;;;5074696;28;20129;-61
2022/12/18 12:01:40;;;;;;;13.52;7.50;;;-1.30;99.90;;;;;;5072788;28;20067;-61
2022/12/18 12:04:27;;;;;;;12.93;6.78;;;-1.30;99.90;;;;;;5081905;28;20442;-60
2022/12/18 12:07:11;;;;;;;12.38;7.32;;;-1.30;99.90;;;;;;5082492;28;20051;-64
2022/12/18 12:10:08;;;;;;;13.37;6.50;;;-1.20;99.90;;;;;;5085541;28;20098;-60
2022/12/18 12:12:49;;;;;;;11.40;6.53;;;-1.20;99.90;;;;;;5073838;28;20044;-61
2022/12/18 12:15:32;;;;;;;11.60;6.32;;;-1.50;99.90;;;;;;5075263;28;20051;-60
2022/12/18 12:18:22;;;;;;;11.05;5.50;;;-1.10;99.90;;;;;;5084223;28;20040;-59
2022/12/18 12:21:09;;;;;;;11.35;6.47;;;-1.10;99.90;;;;;;5087584;28;20082;-60
2022/12/18 12:24:12;;;;;;;11.98;6.45;;;-1.10;99.90;;;;;;5090267;28;20043;-61
2022/12/18 12:27:01;;;;;;;11.57;6.22;;;-1.00;99.90;;;;;;5055804;28;20049;-61
2022/12/18 12:29:36;;;;;;;12.85;7.63;;;-1.00;99.90;;;;;;5090374;28;20035;-64
2022/12/18 12:32:45;;;;;;;14.20;6.55;;;-1.00;99.90;;;;;;5089041;28;20405;-60
2022/12/18 12:35:16;;;;;;;11.45;6.55;;;-0.90;99.90;;;;;;5086448;28;20079;-62
2022/12/18 12:38:06;;;;;;;14.00;7.88;;;-0.90;99.90;;;;;;5056895;28;20127;-60
2022/12/18 12:40:35;;;;;;;12.88;6.63;;;-0.80;99.90;;;;;;5066160;28;20444;-60
2022/12/18 12:43:22;;;;;;;12.15;6.25;;;-0.80;99.90;;;;;;5085231;28;20040;-62
2022/12/18 12:45:55;;;;;;;12.52;6.93;;;-0.70;99.90;;;;;;5063671;28;20133;-60
2022/12/18 12:48:40;;;;;;;15.05;7.15;;;-0.70;99.90;;;;;;5079401;28;20067;-62
2022/12/18 12:51:31;;;;;;;13.10;6.82;;;-0.70;99.90;;;;;;5078146;28;20195;-62
2022/12/18 12:53:58;;;;;;;10.27;6.47;;;-0.70;99.90;;;;;;5069383;28;20395;-63